Time;durP1;ratioP1;P1;durP2;ratioP2;P2;SDS_P1;SDS_P2;PMS_P1;PMS_P2;Temp;Humidity;BMP_temperature;BMP_pressure;BME280_temperature;BME280_humidity;BME280_pressure;Samples;Min_cycle;Max_cycle;Signal;HPM_P1;HPM_P2
2021/04/03 00:02:24;;;;;;;17.37;5.03;;;;;;;-144.99;95.50;52285.03;5066407;28;20633;-73
2021/04/03 00:04:50;;;;;;;14.60;4.63;;;;;;;-144.99;95.51;52317.66;5068325;28;20735;-72
2021/04/03 00:07:17;;;;;;;17.50;5.13;;;;;;;-144.99;95.65;52276.88;5067737;28;20627;-73
2021/04/03 00:09:43;;;;;;;18.00;6.83;;;;;;;-144.99;95.61;52246.31;5065920;28;20266;-75
2021/04/03 00:12:10;;;;;;;18.73;6.40;;;;;;;-144.99;95.73;52246.31;5064772;28;20682;-74
2021/04/03 00:14:37;;;;;;;20.43;6.47;;;;;;;-144.99;95.86;52313.56;5066629;28;20676;-73
2021/04/03 00:17:04;;;;;;;16.57;4.20;;;;;;;-144.99;95.86;52291.16;5064359;28;20631;-73
2021/04/03 00:19:30;;;;;;;25.50;4.83;;;;;;;-144.99;96.17;52285.03;5067137;28;20968;-74
2021/04/03 00:21:56;;;;;;;15.30;5.90;;;;;;;-144.99;96.25;52260.56;5057417;28;20658;-77
2021/04/03 00:24:22;;;;;;;17.37;4.93;;;;;;;-144.99;96.27;52287.06;5084057;28;20566;-73
2021/04/03 00:26:48;;;;;;;19.77;4.63;;;;;;;-144.99;96.46;52289.13;5066590;28;20254;-76
2021/04/03 00:29:14;;;;;;;19.73;4.60;;;;;;;-144.99;96.36;52260.56;5066623;28;20233;-74
2021/04/03 00:31:40;;;;;;;16.83;5.43;;;;;;;-144.99;96.61;52252.44;5065470;28;20253;-72
2021/04/03 00:34:06;;;;;;;17.03;3.60;;;;;;;-144.99;96.57;52309.50;5067428;28;20251;-77
2021/04/03 00:36:32;;;;;;;18.93;4.60;;;;;;;-144.99;96.63;52280.97;5067605;28;20641;-76
2021/04/03 00:38:58;;;;;;;25.03;4.83;;;;;;;-144.99;96.87;52289.13;5064079;28;20659;-74
2021/04/03 00:41:25;;;;;;;21.13;6.37;;;;;;;-144.99;97.12;52289.13;5067697;28;20240;-73
2021/04/03 00:43:51;;;;;;;17.07;4.23;;;;;;;-144.99;97.16;52262.63;5066920;28;20635;-73
2021/04/03 00:46:17;;;;;;;14.43;4.60;;;;;;;-144.99;97.43;52268.72;5066263;28;21005;-74
2021/04/03 00:48:45;;;;;;;16.17;5.43;;;;;;;-144.99;97.53;52305.41;5065278;28;20254;-74
2021/04/03 00:51:12;;;;;;;27.30;5.87;;;;;;;-144.99;97.62;52254.47;5050406;28;20725;-76
2021/04/03 00:53:38;;;;;;;21.70;6.50;;;;;;;-144.99;97.88;52303.38;5056041;28;20676;-74
2021/04/03 00:56:04;;;;;;;16.77;6.00;;;;;;;-144.99;97.99;52272.81;5063932;28;20630;-76
2021/04/03 00:58:30;;;;;;;19.00;4.97;;;;;;;-144.99;97.91;52276.88;5065202;28;20666;-76
2021/04/03 01:00:57;;;;;;;17.70;5.77;;;;;;;-144.99;98.03;52285.03;5053477;28;20993;-74
2021/04/03 01:03:24;;;;;;;14.73;3.50;;;;;;;-144.99;98.15;52252.44;5066553;28;21188;-75
2021/04/03 01:05:52;;;;;;;15.73;4.50;;;;;;;-144.99;98.41;52289.13;5066911;28;20751;-73
2021/04/03 01:08:18;;;;;;;18.47;5.13;;;;;;;-144.99;98.24;52299.31;5051653;28;20611;-73
2021/04/03 01:10:48;;;;;;;16.90;4.50;;;;;;;-144.99;98.31;52280.97;5054580;28;21011;-73
2021/04/03 01:13:40;;;;;;;24.27;5.87;;;;;;;-144.99;98.61;52289.13;5059447;28;21257;-73
2021/04/03 01:16:12;;;;;;;15.50;3.53;;;;;;;-144.99;98.52;52264.66;5066860;28;20638;-73
2021/04/03 01:18:57;;;;;;;17.13;5.73;;;;;;;-144.99;98.56;52272.81;5066730;28;20666;-74
2021/04/03 01:21:32;;;;;;;23.67;6.77;;;;;;;-144.99;98.61;52280.97;5059000;28;20674;-72
2021/04/03 01:24:27;;;;;;;45.20;10.20;;;;;;;-144.99;98.86;52293.19;5063450;28;20619;-73
2021/04/03 01:27:10;;;;;;;24.00;8.40;;;;;;;-144.99;99.10;52297.25;5048780;28;20681;-73
2021/04/03 01:30:03;;;;;;;13.97;7.83;;;;;;;-144.99;99.02;52280.97;5065843;28;20635;-75
2021/04/03 01:32:35;;;;;;;16.30;3.90;;;;;;;-144.99;98.92;52303.38;5062107;28;20619;-74
2021/04/03 01:35:03;;;;;;;19.57;5.10;;;;;;;-144.99;98.84;52297.25;5066936;28;20750;-75
2021/04/03 01:37:31;;;;;;;11.90;7.17;;;;;;;-144.99;98.89;52276.88;5066378;28;20615;-77
2021/04/03 01:39:58;;;;;;;17.37;4.93;;;;;;;-144.99;99.13;52301.34;5065378;28;21475;-74
2021/04/03 01:42:28;;;;;;;18.97;4.07;;;;;;;-144.99;99.03;52264.66;5062491;28;21159;-73
2021/04/03 01:44:58;;;;;;;21.70;4.30;;;;;;;-144.99;99.13;52297.25;5062328;28;21092;-73
2021/04/03 01:47:27;;;;;;;18.07;5.33;;;;;;;-144.99;99.05;52280.97;5066956;28;20764;-72
2021/04/03 01:49:55;;;;;;;25.53;8.00;;;;;;;-144.99;99.24;52260.56;5064690;28;20639;-73
2021/04/03 01:52:24;;;;;;;23.80;5.50;;;;;;;-144.99;99.20;52289.13;5065009;28;21175;-75
2021/04/03 01:54:53;;;;;;;18.73;6.43;;;;;;;-144.99;99.21;52287.06;5055487;28;20619;-74
2021/04/03 01:57:19;;;;;;;28.23;5.23;;;;;;;-144.99;99.28;52321.72;5066825;28;20627;-74
2021/04/03 01:59:47;;;;;;;20.70;4.77;;;;;;;-144.99;99.32;52236.13;5066574;28;20655;-76
2021/04/03 02:02:14;;;;;;;14.20;5.20;;;;;;;-144.99;99.27;52276.88;5059581;28;21277;-75
2021/04/03 02:04:42;;;;;;;22.00;3.63;;;;;;;-144.99;99.17;52305.41;5058318;28;20634;-74
2021/04/03 02:07:13;;;;;;;20.77;4.17;;;;;;;-144.99;99.24;52301.34;5066215;28;20634;-73
2021/04/03 02:09:40;;;;;;;17.80;7.63;;;;;;;-144.99;99.16;52342.09;5066759;28;21116;-74
2021/04/03 02:12:09;;;;;;;13.97;4.63;;;;;;;-144.99;99.25;52258.53;5061040;28;20666;-75
2021/04/03 02:14:37;;;;;;;28.67;5.50;;;;;;;-144.99;99.06;52248.34;5081217;28;20726;-77
2021/04/03 02:17:05;;;;;;;25.97;6.30;;;;;;;-144.99;99.10;52260.56;5068254;28;21009;-73
2021/04/03 02:19:31;;;;;;;20.30;7.27;;;;;;;-144.99;99.03;52276.88;5067221;28;20654;-74
2021/04/03 02:21:59;;;;;;;17.60;5.40;;;;;;;-144.99;98.98;52278.91;4713684;28;10000524;-73
2021/04/03 02:24:25;;;;;;;22.47;6.80;;;;;;;-144.99;98.91;52285.03;5071389;28;20576;-72
2021/04/03 02:26:51;;;;;;;23.17;4.30;;;;;;;-144.99;98.90;52256.50;5065971;28;20630;-73
2021/04/03 02:29:17;;;;;;;15.90;5.70;;;;;;;-144.99;98.96;52252.44;5069802;28;21227;-75
2021/04/03 02:31:43;;;;;;;13.60;6.27;;;;;;;-144.99;98.74;52293.19;5067374;28;20220;-73
2021/04/03 02:34:09;;;;;;;21.73;5.70;;;;;;;-144.99;98.72;52252.44;5063119;28;20651;-73
2021/04/03 02:36:35;;;;;;;22.07;6.57;;;;;;;-144.99;98.83;52307.47;5071378;28;20291;-74
2021/04/03 02:39:03;;;;;;;24.73;6.27;;;;;;;-144.99;98.78;52287.06;5072093;28;20229;-73
2021/04/03 02:41:36;;;;;;;15.30;5.57;;;;;;;-144.99;98.70;52287.06;5071994;28;20262;-71
2021/04/03 02:44:08;;;;;;;17.57;5.33;;;;;;;-144.99;98.67;52278.91;5069344;28;21195;-74
2021/04/03 02:46:39;;;;;;;18.40;4.97;;;;;;;-144.99;98.86;52293.19;5068120;28;20623;-71
2021/04/03 02:49:12;;;;;;;24.93;8.57;;;;;;;-144.99;98.84;52283.00;5072181;28;20629;-71
2021/04/03 02:51:42;;;;;;;14.27;3.70;;;;;;;-144.99;99.13;52295.22;5069030;28;20651;-72
2021/04/03 02:54:09;;;;;;;18.17;5.77;;;;;;;-144.99;98.99;52264.66;5065052;28;20630;-72
2021/04/03 02:56:37;;;;;;;13.47;4.70;;;;;;;-144.99;99.11;52289.13;5068570;28;20631;-73
2021/04/03 02:59:03;;;;;;;11.80;4.33;;;;;;;-144.99;99.34;52289.13;5072870;28;20658;-73
2021/04/03 03:01:29;;;;;;;13.83;3.47;;;;;;;-144.99;99.48;52280.97;5071765;28;20649;-73
2021/04/03 03:03:56;;;;;;;11.47;3.50;;;;;;;-144.99;99.64;52297.25;5069345;28;20665;-74
2021/04/03 03:06:23;;;;;;;23.37;5.50;;;;;;;-144.99;99.66;52342.09;5069757;28;20625;-73
2021/04/03 03:08:51;;;;;;;15.17;5.13;;;;;;;-144.99;99.60;52293.19;5071854;28;21164;-73
2021/04/03 03:11:21;;;;;;;19.27;4.10;;;;;;;-144.99;99.65;52305.41;5071465;28;20647;-73
2021/04/03 03:13:48;;;;;;;18.40;4.70;;;;;;;-144.99;99.76;52260.56;5069331;28;20634;-75
2021/04/03 03:16:16;;;;;;;14.97;5.87;;;;;;;-144.99;99.68;52264.66;5070495;28;20615;-74
2021/04/03 03:18:43;;;;;;;17.33;4.17;;;;;;;-144.99;99.76;52280.97;5071603;28;21210;-74
2021/04/03 03:21:09;;;;;;;28.33;5.80;;;;;;;-144.99;99.74;52258.53;5063859;28;21075;-72
2021/04/03 03:23:35;;;;;;;14.13;6.07;;;;;;;-144.99;99.78;52325.81;5063128;28;20620;-73
2021/04/03 03:26:02;;;;;;;14.57;3.87;;;;;;;-144.99;99.78;52305.41;5066512;28;21183;-75
2021/04/03 03:28:32;;;;;;;12.90;4.07;;;;;;;-144.99;99.90;52264.66;5071381;28;20672;-75
2021/04/03 03:30:58;;;;;;;19.00;5.10;;;;;;;-144.99;100.00;52305.41;5069922;28;20728;-75
2021/04/03 03:33:24;;;;;;;11.60;4.20;;;;;;;-144.99;100.00;52305.41;5071259;28;20607;-74
2021/04/03 03:35:50;;;;;;;13.73;3.27;;;;;;;-144.99;99.93;52285.03;5068440;28;21191;-74
2021/04/03 03:38:17;;;;;;;18.87;5.53;;;;;;;-144.99;99.91;52287.06;5064341;28;20628;-72
2021/04/03 03:40:43;;;;;;;14.67;5.23;;;;;;;-144.99;100.00;52301.34;5095761;22;20506;-73
2021/04/03 03:43:16;;;;;;;12.07;4.33;;;;;;;-144.99;100.00;52280.97;5067346;28;20952;-74
2021/04/03 03:45:43;;;;;;;16.13;5.53;;;;;;;-144.99;100.00;52256.50;5066800;28;20639;-77
2021/04/03 03:48:09;;;;;;;12.10;4.90;;;;;;;-144.99;100.00;52285.03;5068444;28;20615;-74
2021/04/03 03:50:35;;;;;;;13.47;5.53;;;;;;;-144.99;100.00;52289.13;5070828;28;20622;-73
2021/04/03 03:53:01;;;;;;;15.70;5.87;;;;;;;-144.99;100.00;52272.81;5052127;28;20863;-75
2021/04/03 03:55:27;;;;;;;14.80;3.97;;;;;;;-144.99;100.00;52285.03;5054378;28;20208;-75
2021/04/03 03:57:53;;;;;;;13.10;3.83;;;;;;;-144.99;100.00;52276.88;5061964;28;20676;-73
2021/04/03 04:00:20;;;;;;;15.80;4.83;;;;;;;-144.99;100.00;52299.31;5050871;28;20308;-73
2021/04/03 04:02:47;;;;;;;12.53;4.30;;;;;;;-144.99;100.00;52309.50;5051166;28;20610;-77
2021/04/03 04:05:14;;;;;;;18.43;3.70;;;;;;;-144.99;100.00;52285.03;5051434;28;20631;-74
2021/04/03 04:07:40;;;;;;;17.33;5.47;;;;;;;-144.99;100.00;52260.56;5058333;28;20792;-72
2021/04/03 04:10:08;;;;;;;12.60;4.03;;;;;;;-144.99;100.00;52289.13;5051865;28;20616;-75
2021/04/03 04:12:35;;;;;;;14.90;7.20;;;;;;;-144.99;100.00;52278.91;5051313;28;20969;-73
2021/04/03 04:15:01;;;;;;;14.37;4.10;;;;;;;-144.99;100.00;52285.03;5051329;28;20619;-74
2021/04/03 04:17:27;;;;;;;13.67;7.50;;;;;;;-144.99;100.00;52307.47;5053403;28;21192;-73
2021/04/03 04:19:53;;;;;;;14.30;4.53;;;;;;;-144.99;100.00;52297.25;5060682;28;20732;-75
2021/04/03 04:22:19;;;;;;;10.87;4.30;;;;;;;-144.99;100.00;52311.53;5050525;28;20648;-73
2021/04/03 04:24:45;;;;;;;16.77;6.23;;;;;;;-144.99;100.00;52313.56;5057525;28;21289;-73
2021/04/03 04:27:11;;;;;;;13.13;4.07;;;;;;;-144.99;100.00;52280.97;5057443;28;20202;-72
2021/04/03 04:29:38;;;;;;;13.10;3.70;;;;;;;-144.99;100.00;52291.16;5056789;28;20620;-72
2021/04/03 04:32:05;;;;;;;18.10;5.73;;;;;;;-144.99;100.00;52262.63;5050896;28;20659;-73
2021/04/03 04:34:31;;;;;;;14.90;4.67;;;;;;;-144.99;100.00;52256.50;5050973;28;20685;-77
2021/04/03 04:36:58;;;;;;;11.47;4.27;;;;;;;-144.99;100.00;52309.50;5049757;28;20647;-76
2021/04/03 04:39:25;;;;;;;10.77;6.07;;;;;;;-144.99;100.00;52260.56;5061044;28;20647;-73
2021/04/03 04:41:51;;;;;;;11.70;4.13;;;;;;;-144.99;100.00;52321.72;5052488;28;20676;-73
2021/04/03 04:44:16;;;;;;;12.07;4.83;;;;;;;-144.99;99.97;52303.38;5050574;28;20917;-73
2021/04/03 04:46:42;;;;;;;11.00;4.50;;;;;;;-144.99;99.92;52256.50;5048608;28;20667;-71
2021/04/03 04:49:08;;;;;;;16.70;5.20;;;;;;;-144.99;99.88;52256.50;5060967;28;20251;-73
2021/04/03 04:51:34;;;;;;;16.53;4.67;;;;;;;-144.99;99.86;52248.34;5051465;28;20222;-74
2021/04/03 04:54:01;;;;;;;15.90;4.03;;;;;;;-144.99;99.76;52264.66;5050339;28;20255;-74
2021/04/03 04:56:27;;;;;;;10.00;4.93;;;;;;;-144.99;99.67;52283.00;5049620;28;20675;-77
2021/04/03 04:58:53;;;;;;;15.33;5.30;;;;;;;-144.99;99.74;52299.31;5049242;28;20693;-74
2021/04/03 05:01:19;;;;;;;12.40;4.10;;;;;;;-144.99;99.75;52254.47;5059729;28;20853;-75
2021/04/03 05:03:45;;;;;;;12.83;3.73;;;;;;;-144.99;99.76;52293.19;5049837;28;20243;-75
2021/04/03 05:06:11;;;;;;;7.20;3.20;;;;;;;-144.99;99.76;52280.97;5050041;28;20637;-75
2021/04/03 05:08:37;;;;;;;15.73;4.53;;;;;;;-144.99;99.74;52301.34;5055188;28;20224;-76
2021/04/03 05:11:04;;;;;;;11.73;3.83;;;;;;;-144.99;99.67;52309.50;5058614;28;20221;-74
2021/04/03 05:13:30;;;;;;;11.03;4.33;;;;;;;-144.99;99.50;52270.78;5050609;28;20197;-78
2021/04/03 05:15:56;;;;;;;8.73;4.57;;;;;;;-144.99;99.57;52293.19;5050602;28;20665;-74
2021/04/03 05:18:23;;;;;;;13.93;3.97;;;;;;;-144.99;99.39;52272.81;5052043;28;20688;-76
2021/04/03 05:20:49;;;;;;;9.10;5.73;;;;;;;-144.99;99.21;52268.72;5054095;28;20667;-75
2021/04/03 05:23:16;;;;;;;17.30;3.57;;;;;;;-144.99;99.18;52297.25;5063916;28;20615;-76
2021/04/03 05:25:42;;;;;;;11.23;4.53;;;;;;;-144.99;99.04;52301.34;5053010;28;20640;-75
2021/04/03 05:28:09;;;;;;;9.53;4.10;;;;;;;-144.99;99.00;52301.34;5049288;28;20723;-74
2021/04/03 05:30:35;;;;;;;13.17;4.13;;;;;;;-144.99;98.79;52287.06;5050171;28;20193;-75
2021/04/03 05:33:01;;;;;;;14.60;4.27;;;;;;;-144.99;98.44;52272.81;5057717;28;20630;-76
2021/04/03 05:35:27;;;;;;;10.30;5.23;;;;;;;-144.99;98.37;52317.66;5051140;28;20623;-74
2021/04/03 05:37:53;;;;;;;8.97;4.40;;;;;;;-144.99;98.18;52254.47;5055140;28;20623;-75
2021/04/03 05:40:19;;;;;;;9.80;4.60;;;;;;;-144.99;98.11;52293.19;5055798;28;20643;-73
2021/04/03 05:42:48;;;;;;;11.57;4.43;;;;;;;-144.99;97.95;52250.38;5061467;28;20201;-73
2021/04/03 05:45:16;;;;;;;13.07;4.43;;;;;;;-144.99;97.73;52280.97;5051078;28;20217;-75
2021/04/03 05:47:43;;;;;;;13.50;3.60;;;;;;;-144.99;97.64;52285.03;5049962;28;20996;-76
2021/04/03 05:50:11;;;;;;;7.17;3.97;;;;;;;-144.99;97.32;52285.03;5046733;28;20647;-75
2021/04/03 05:52:37;;;;;;;10.60;3.30;;;;;;;-144.99;97.08;52268.72;5050569;28;20650;-76
2021/04/03 05:55:04;;;;;;;7.53;3.57;;;;;;;-144.99;96.61;52256.50;5053022;28;20640;-77
2021/04/03 05:57:30;;;;;;;6.27;3.27;;;;;;;-144.99;96.40;52297.25;5054401;28;20626;-76
2021/04/03 05:59:56;;;;;;;10.87;4.17;;;;;;;-144.99;95.96;52260.56;5054462;28;21255;-76
2021/04/03 06:02:23;;;;;;;8.57;4.43;;;;;;;-144.99;95.54;52260.56;5066855;28;20654;-77
2021/04/03 06:04:52;;;;;;;13.60;4.17;;;;;;;-144.99;95.16;52252.44;5057993;28;20624;-76
2021/04/03 06:07:19;;;;;;;8.40;3.77;;;;;;;-144.99;94.89;52262.63;5055772;28;20687;-75
2021/04/03 06:09:45;;;;;;;19.13;4.67;;;;;;;-144.99;94.12;52227.97;5055274;28;20600;-76
2021/04/03 06:12:11;;;;;;;10.03;4.13;;;;;;;-144.99;93.95;52260.56;5061034;28;20651;-78
2021/04/03 06:14:38;;;;;;;10.17;3.33;;;;;;;-144.99;93.22;52268.72;5064715;28;20619;-80
2021/04/03 06:17:04;;;;;;;9.07;4.07;;;;;;;-144.99;92.77;52287.06;5056111;28;20615;-76
2021/04/03 06:19:34;;;;;;;7.80;3.97;;;;;;;-144.99;92.28;52264.66;5054641;28;20648;-75
2021/04/03 06:22:02;;;;;;;9.43;3.63;;;;;;;-144.99;91.69;52252.44;5063219;28;20662;-80
2021/04/03 06:24:29;;;;;;;11.60;4.27;;;;;;;-144.99;90.51;52260.56;5056597;28;20618;-77
2021/04/03 06:27:01;;;;;;;12.10;4.70;;;;;;;-144.99;89.62;52244.28;5057020;28;20616;-76
2021/04/03 06:29:31;;;;;;;8.70;3.90;;;;;;;-144.99;88.89;52244.28;5056797;28;20683;-76
2021/04/03 06:31:59;;;;;;;11.63;6.87;;;;;;;-144.99;88.33;52258.53;5049666;28;20663;-77
2021/04/03 06:34:29;;;;;;;14.93;5.90;;;;;;;-144.99;87.09;52244.28;5067481;28;20618;-77
2021/04/03 06:36:57;;;;;;;6.20;3.87;;;;;;;-144.99;86.21;52240.19;5056569;28;20627;-76
2021/04/03 06:39:23;;;;;;;9.73;3.83;;;;;;;-144.99;85.38;52244.28;5061367;28;21264;-76
2021/04/03 06:41:49;;;;;;;8.53;3.10;;;;;;;-144.99;84.50;52236.13;5055086;28;20671;-75
2021/04/03 06:44:16;;;;;;;8.20;2.80;;;;;;;-144.99;84.23;52252.44;5067136;28;20619;-76
2021/04/03 06:46:43;;;;;;;9.93;4.80;;;;;;;-144.99;83.57;52276.88;5055322;28;20714;-76
2021/04/03 06:49:10;;;;;;;7.07;3.30;;;;;;;-144.99;83.06;52240.19;5050961;28;20958;-77
2021/04/03 06:51:37;;;;;;;8.97;3.40;;;;;;;-144.99;82.39;52285.03;5053247;28;20648;-76
2021/04/03 06:54:06;;;;;;;7.63;3.23;;;;;;;-144.99;81.72;52199.44;5062197;28;20631;-77
2021/04/03 06:56:34;;;;;;;6.00;2.93;;;;;;;-144.99;80.92;52252.44;5052702;28;20996;-80
2021/04/03 06:59:03;;;;;;;8.53;4.90;;;;;;;-144.99;79.99;52256.50;5052970;28;20607;-78
2021/04/03 07:01:41;;;;;;;7.33;3.50;;;;;;;-144.99;78.88;52260.56;5060781;28;20741;-74
2021/04/03 07:04:10;;;;;;;7.60;3.57;;;;;;;-144.99;78.75;52236.13;5060460;28;21000;-76
2021/04/03 07:06:37;;;;;;;6.57;3.90;;;;;;;-144.99;78.67;52199.44;5052315;28;20967;-74
2021/04/03 07:09:05;;;;;;;6.23;2.60;;;;;;;-144.99;78.03;52221.84;5053285;28;20623;-75
2021/04/03 07:11:32;;;;;;;8.57;3.43;;;;;;;-144.99;76.61;52227.97;5057841;28;20217;-76
2021/04/03 07:13:59;;;;;;;6.87;3.77;;;;;;;-144.99;75.58;52227.97;5053989;28;20220;-72
2021/04/03 07:16:26;;;;;;;7.07;2.87;;;;;;;-144.99;75.39;52256.50;5052297;28;20259;-72
2021/04/03 07:18:53;;;;;;;8.40;3.00;;;;;;;-144.99;75.21;52244.28;5049143;28;20260;-72
2021/04/03 07:21:19;;;;;;;13.03;4.93;;;;;;;-144.99;74.73;52211.66;5054214;28;20233;-73
2021/04/03 07:23:45;;;;;;;12.17;9.87;;;;;;;-144.99;73.27;52244.28;5055967;28;20254;-74
2021/04/03 07:26:16;;;;;;;9.33;4.10;;;;;;;-144.99;72.76;52219.81;5052180;28;20202;-73
2021/04/03 07:28:42;;;;;;;6.60;2.97;;;;;;;-144.99;70.99;52207.59;5052261;28;20206;-74
2021/04/03 07:31:09;;;;;;;6.60;2.40;;;;;;;-144.99;70.75;52266.69;5053484;28;20229;-73
2021/04/03 07:33:47;;;;;;;5.03;2.50;;;;;;;-144.99;69.63;52195.34;5061259;28;20214;-74
2021/04/03 07:36:30;;;;;;;5.93;3.33;;;;;;;-144.99;69.32;52258.53;5043191;28;20580;-73
2021/04/03 07:38:56;;;;;;;7.47;4.10;;;;;;;-144.99;67.59;52227.97;5057939;28;20231;-74
2021/04/03 07:41:23;;;;;;;7.23;3.37;;;;;;;-144.99;65.37;52238.16;5051830;28;20228;-73
2021/04/03 07:43:49;;;;;;;6.93;3.27;;;;;;;-144.99;65.50;52195.34;5060482;28;20190;-78
2021/04/03 07:46:36;;;;;;;7.23;2.70;;;;;;;-144.99;65.39;52215.75;5056790;28;20209;-78
2021/04/03 07:49:02;;;;;;;5.37;3.00;;;;;;;-144.99;62.49;52213.69;5054116;28;20202;-77
2021/04/03 07:51:48;;;;;;;4.80;2.70;;;;;;;-144.99;60.98;52219.81;5063579;28;20295;-77
2021/04/03 07:54:28;;;;;;;6.80;3.00;;;;;;;-144.99;60.35;52191.28;5043704;28;20300;-77
2021/04/03 07:56:58;;;;;;;5.50;3.03;;;;;;;-144.99;59.70;52199.44;5054913;28;20255;-77
2021/04/03 07:59:51;;;;;;;8.13;2.43;;;;;;;-144.99;58.04;52187.19;5054788;28;20695;-76
2021/04/03 08:02:25;;;;;;;6.78;3.05;;;;;;;-144.99;58.99;52187.19;5054670;28;20758;-74
2021/04/03 08:04:51;;;;;;;8.73;3.23;;;;;;;-144.99;57.95;52215.75;5057727;28;20205;-75
2021/04/03 08:07:20;;;;;;;6.63;2.40;;;;;;;-144.99;56.94;52244.28;5051259;28;20222;-76
2021/04/03 08:09:46;;;;;;;7.80;2.67;;;;;;;-144.99;56.23;52191.28;5050877;28;20247;-77
2021/04/03 08:12:13;;;;;;;4.33;2.20;;;;;;;-144.99;55.33;52203.50;5058105;28;20225;-75
2021/04/03 08:14:42;;;;;;;4.80;1.97;;;;;;;-144.99;55.09;52179.06;5042821;28;20194;-76
2021/04/03 08:17:09;;;;;;;4.17;2.13;;;;;;;-144.99;54.29;52183.13;5065104;28;20204;-74
2021/04/03 08:19:37;;;;;;;4.93;2.00;;;;;;;-144.99;52.97;52219.81;5041059;28;20224;-75
2021/04/03 08:22:08;;;;;;;7.55;2.78;;;;;;;-144.99;52.46;52193.31;5049990;28;20851;-75
2021/04/03 08:24:35;;;;;;;7.20;2.40;;;;;;;-144.99;52.02;52191.28;5025757;28;20209;-76
2021/04/03 08:27:01;;;;;;;4.97;2.07;;;;;;;-144.99;52.05;52174.97;5060211;28;20200;-74
2021/04/03 08:29:31;;;;;;;7.30;2.20;;;;;;;-144.99;51.54;52213.69;5050410;28;20209;-74
2021/04/03 08:31:58;;;;;;;4.70;1.93;;;;;;;-144.99;49.38;52158.66;5053450;28;20809;-76
2021/04/03 08:34:25;;;;;;;5.53;3.17;;;;;;;-144.99;47.47;52158.66;5050314;28;20227;-74
2021/04/03 08:36:53;;;;;;;3.63;2.07;;;;;;;-144.99;48.01;52199.44;5055069;28;20254;-75
2021/04/03 08:39:20;;;;;;;3.23;1.90;;;;;;;-144.99;47.16;52130.13;5058822;28;20240;-73
2021/04/03 08:41:48;;;;;;;5.73;3.60;;;;;;;-144.99;47.53;52189.25;5006280;28;59512;-76
2021/04/03 08:44:16;;;;;;;3.70;1.40;;;;;;;-144.99;46.58;52170.91;5010090;28;20257;-76
2021/04/03 08:46:44;;;;;;;1.53;1.13;;;;;;;-144.99;45.28;52183.13;5017398;28;20195;-76
2021/04/03 08:49:11;;;;;;;6.40;2.07;;;;;;;-144.99;44.91;52166.81;5022477;28;20226;-76
2021/04/03 08:51:37;;;;;;;10.00;6.47;;;;;;;-144.99;45.03;52138.28;5007399;28;20224;-74
2021/04/03 08:54:03;;;;;;;6.57;2.47;;;;;;;-144.99;43.93;52170.91;5010049;28;20572;-76
2021/04/03 08:56:31;;;;;;;6.23;2.93;;;;;;;-144.99;43.41;52199.44;5017282;28;20199;-76
2021/04/03 08:58:59;;;;;;;3.13;1.90;;;;;;;-144.99;43.75;52189.25;5016293;28;20202;-74
2021/04/03 09:01:26;;;;;;;3.20;1.80;;;;;;;-144.99;43.23;52187.19;5010660;28;20285;-74
2021/04/03 09:03:56;;;;;;;4.03;2.10;;;;;;;-144.99;42.88;52170.91;5011879;28;20613;-79
2021/04/03 09:06:45;;;;;;;4.93;2.83;;;;;;;-144.99;42.60;52179.06;5014190;28;20213;-73
2021/04/03 09:09:12;;;;;;;5.67;2.40;;;;;;;-144.99;42.05;52162.75;5020880;28;20711;-76
2021/04/03 09:11:38;;;;;;;3.60;1.70;;;;;;;-144.99;41.93;52162.75;5010880;28;20237;-75
2021/04/03 09:14:05;;;;;;;6.43;1.87;;;;;;;-144.99;42.56;52185.16;5011845;28;20199;-75
2021/04/03 09:16:38;;;;;;;5.20;1.53;;;;;;;-144.99;41.52;52203.50;5009598;28;20199;-76
2021/04/03 09:19:06;;;;;;;7.13;2.40;;;;;;;-144.99;40.85;52211.66;5012403;28;20580;-77
2021/04/03 09:21:32;;;;;;;5.60;2.27;;;;;;;-144.99;40.71;52168.84;5019087;28;21421;-77
2021/04/03 09:23:58;;;;;;;8.17;2.23;;;;;;;-144.99;40.19;52207.59;5029939;28;20206;-81
2021/04/03 09:26:35;;;;;;;5.20;1.53;;;;;;;-144.99;39.72;52162.75;5018999;28;20199;-76
2021/04/03 09:29:06;;;;;;;6.10;2.87;;;;;;;-144.99;38.96;52181.09;5023095;28;20200;-75
2021/04/03 09:31:42;;;;;;;3.47;2.00;;;;;;;-144.99;38.42;52111.78;5030232;28;20224;-76
2021/04/03 09:34:09;;;;;;;4.87;1.73;;;;;;;-144.99;38.47;52219.81;5034197;28;20286;-74
2021/04/03 09:36:44;;;;;;;3.53;1.70;;;;;;;-144.99;37.96;52195.34;5022226;28;20220;-75
2021/04/03 09:39:14;;;;;;;4.73;2.03;;;;;;;-144.99;37.17;52134.22;5023390;28;20202;-74
2021/04/03 09:41:45;;;;;;;2.67;1.70;;;;;;;-144.99;37.28;52170.91;5036177;23;20230;-74
2021/04/03 09:44:13;;;;;;;3.33;1.57;;;;;;;-144.99;37.14;52162.75;5035450;28;20260;-78
2021/04/03 09:46:40;;;;;;;3.60;1.77;;;;;;;-144.99;38.60;52166.81;5036550;28;20665;-76
2021/04/03 09:49:11;;;;;;;2.57;1.57;;;;;;;-144.99;38.71;52195.34;5026366;28;20191;-77
2021/04/03 09:51:37;;;;;;;4.83;2.37;;;;;;;-144.99;38.47;52136.25;5034656;28;20232;-76
2021/04/03 09:54:04;;;;;;;3.83;2.43;;;;;;;-144.99;37.94;52166.81;5037549;28;20201;-78
2021/04/03 09:56:30;;;;;;;5.17;2.30;;;;;;;-144.99;37.25;52113.84;5039396;28;20224;-75
2021/04/03 09:58:58;;;;;;;5.43;1.70;;;;;;;-144.99;36.70;52156.63;5036551;28;20652;-77
2021/04/03 10:01:24;;;;;;;4.70;1.57;;;;;;;-144.99;36.32;52170.91;5037240;28;20240;-76
2021/04/03 10:03:52;;;;;;;4.43;2.83;;;;;;;-144.99;36.22;52146.44;5038318;28;20213;-75
2021/04/03 10:06:18;;;;;;;2.90;1.53;;;;;;;-144.99;34.85;52105.69;5032260;28;20206;-75
2021/04/03 10:08:44;;;;;;;8.03;2.50;;;;;;;-144.99;34.38;52121.97;5030939;28;20606;-75
2021/04/03 10:11:10;;;;;;;4.80;2.73;;;;;;;-144.99;33.40;52121.97;5026358;28;20190;-75
2021/04/03 10:13:36;;;;;;;2.97;1.60;;;;;;;-144.99;33.25;52111.78;5029916;28;20718;-75
2021/04/03 10:16:03;;;;;;;2.80;1.30;;;;;;;-144.99;33.50;52093.44;5036162;28;20240;-74
2021/04/03 10:18:29;;;;;;;4.83;1.83;;;;;;;-144.99;33.09;52154.59;5037222;28;20206;-75
2021/04/03 10:20:55;;;;;;;4.27;2.03;;;;;;;-144.99;32.43;52085.31;5033553;28;20297;-75
2021/04/03 10:23:22;;;;;;;3.23;1.77;;;;;;;-144.99;31.71;52085.31;5037242;28;20389;-76
2021/04/03 10:25:47;;;;;;;6.17;1.50;;;;;;;-144.99;32.04;52130.13;5037142;28;20205;-75
2021/04/03 10:28:13;;;;;;;3.47;1.00;;;;;;;-144.99;31.83;52111.78;5038035;28;20206;-77
2021/04/03 10:30:40;;;;;;;2.10;1.20;;;;;;;-144.99;31.27;52128.09;5037324;28;20239;-73
2021/04/03 10:33:06;;;;;;;2.60;1.20;;;;;;;-144.99;31.59;52093.44;5037932;28;20222;-74
2021/04/03 10:35:32;;;;;;;5.97;2.30;;;;;;;-144.99;31.60;52056.78;5036957;28;20225;-75
2021/04/03 10:37:58;;;;;;;3.77;1.73;;;;;;;-144.99;30.92;52052.69;5036004;28;20205;-75
2021/04/03 10:40:25;;;;;;;9.27;1.93;;;;;;;-144.99;31.41;52024.16;5038776;28;20218;-76
2021/04/03 10:42:51;;;;;;;3.37;1.33;;;;;;;-144.99;31.75;52032.31;5034683;28;20237;-75
2021/04/03 10:45:17;;;;;;;5.97;2.70;;;;;;;-144.99;31.35;52007.84;5033973;28;20194;-76
2021/04/03 10:47:43;;;;;;;6.60;3.33;;;;;;;-144.99;30.64;52022.13;5030542;28;20194;-77
2021/04/03 10:50:10;;;;;;;6.07;3.07;;;;;;;-144.99;30.31;51997.66;5033775;28;20281;-74
2021/04/03 10:52:36;;;;;;;8.13;4.27;;;;;;;-144.99;30.25;51991.56;5032420;28;20515;-78
2021/04/03 10:55:03;;;;;;;10.17;4.07;;;;;;;-144.99;30.00;51991.56;5032280;28;20207;-76
2021/04/03 10:57:30;;;;;;;6.53;4.33;;;;;;;-144.99;28.99;52032.31;5025394;28;20296;-78
2021/04/03 10:59:56;;;;;;;10.00;4.97;;;;;;;-144.99;29.60;52005.81;5033272;28;20284;-75
2021/04/03 11:02:22;;;;;;;4.20;2.67;;;;;;;-144.99;29.24;52018.03;5031762;28;20237;-75
2021/04/03 11:04:48;;;;;;;4.97;2.37;;;;;;;-144.99;28.79;52022.13;5032272;28;20206;-74
2021/04/03 11:07:15;;;;;;;3.27;2.03;;;;;;;-144.99;29.22;52020.09;5032743;28;20206;-75
2021/04/03 11:09:41;;;;;;;7.07;2.50;;;;;;;-144.99;28.87;52020.09;5032344;28;20211;-76
2021/04/03 11:12:08;;;;;;;6.03;1.80;;;;;;;-144.99;29.40;52036.38;5032282;28;20245;-77
2021/04/03 11:14:34;;;;;;;4.93;1.73;;;;;;;-144.99;29.44;51987.47;5032084;28;20265;-75
2021/04/03 11:17:00;;;;;;;4.47;2.47;;;;;;;-144.99;28.87;52007.84;5031521;28;20214;-75